Time;durP1;ratioP1;P1;durP2;ratioP2;P2;SDS_P1;SDS_P2;PMS_P1;PMS_P2;Temp;Humidity;BMP_temperature;BMP_pressure;BME280_temperature;BME280_humidity;BME280_pressure;Samples;Min_cycle;Max_cycle;Signal;HPM_P1;HPM_P2
2023/01/26 00:01:00;;;;;;;22.70;14.33;;;;;;;;;;4989902;28;20236;-83
2023/01/26 00:03:28;;;;;;;21.17;12.60;;;;;;;;;;4989639;28;20689;-83
2023/01/26 00:05:55;;;;;;;19.67;13.03;;;;;;;;;;4990227;28;20236;-83
2023/01/26 00:08:22;;;;;;;24.33;13.63;;;;;;;;;;4990938;28;20222;-83
2023/01/26 00:10:50;;;;;;;18.87;13.67;;;;;;;;;;4990110;28;20243;-83
2023/01/26 00:13:18;;;;;;;23.43;14.37;;;;;;;;;;4990395;28;20679;-83
2023/01/26 00:15:46;;;;;;;24.63;14.70;;;;;;;;;;4989935;28;20655;-82
2023/01/26 00:18:13;;;;;;;23.80;13.90;;;;;;;;;;4990354;28;20215;-83
2023/01/26 00:20:40;;;;;;;23.20;14.40;;;;;;;;;;5001744;28;20244;-83
2023/01/26 00:23:07;;;;;;;22.93;14.33;;;;;;;;;;5009860;28;20215;-82
2023/01/26 00:25:34;;;;;;;20.97;13.53;;;;;;;;;;5009738;28;20235;-83
2023/01/26 00:28:01;;;;;;;23.47;14.37;;;;;;;;;;5009975;28;20208;-83
2023/01/26 00:30:28;;;;;;;27.03;14.07;;;;;;;;;;4996851;28;20243;-83
2023/01/26 00:32:57;;;;;;;21.93;12.33;;;;;;;;;;5005657;28;20569;-82
2023/01/26 00:35:24;;;;;;;19.17;10.70;;;;;;;;;;4995050;28;20263;-83
2023/01/26 00:37:51;;;;;;;18.63;12.40;;;;;;;;;;4990477;28;20211;-83
2023/01/26 00:40:18;;;;;;;17.77;12.00;;;;;;;;;;5005378;28;20246;-83
2023/01/26 00:42:45;;;;;;;25.50;11.97;;;;;;;;;;4990101;28;20200;-82
2023/01/26 00:45:12;;;;;;;17.97;12.23;;;;;;;;;;4989770;28;20236;-83
2023/01/26 00:47:39;;;;;;;20.67;13.20;;;;;;;;;;5007440;28;20212;-83
2023/01/26 00:50:08;;;;;;;25.87;12.23;;;;;;;;;;5005673;28;20239;-82
2023/01/26 00:52:35;;;;;;;18.17;12.43;;;;;;;;;;5009496;28;20264;-83
2023/01/26 00:55:02;;;;;;;20.73;12.53;;;;;;;;;;5008846;28;20749;-82
2023/01/26 00:57:29;;;;;;;19.47;13.27;;;;;;;;;;5009599;28;20664;-82
2023/01/26 00:59:56;;;;;;;20.90;13.50;;;;;;;;;;5009180;28;20247;-83
2023/01/26 01:02:24;;;;;;;23.23;14.30;;;;;;;;;;5008957;28;20710;-83
2023/01/26 01:04:51;;;;;;;22.00;13.23;;;;;;;;;;5008970;28;20702;-83
2023/01/26 01:07:19;;;;;;;24.80;14.97;;;;;;;;;;5008238;28;20695;-83
2023/01/26 01:09:46;;;;;;;21.93;13.43;;;;;;;;;;4997916;28;20234;-83
2023/01/26 01:12:13;;;;;;;23.90;13.90;;;;;;;;;;4996858;28;20798;-83
2023/01/26 01:14:40;;;;;;;22.10;14.17;;;;;;;;;;4989112;28;20696;-82
2023/01/26 01:17:07;;;;;;;24.50;14.07;;;;;;;;;;4989625;28;20208;-83
2023/01/26 01:19:34;;;;;;;19.13;12.67;;;;;;;;;;4989466;28;20232;-82
2023/01/26 01:22:01;;;;;;;20.53;12.70;;;;;;;;;;4989940;28;20240;-82
2023/01/26 01:24:30;;;;;;;23.47;13.70;;;;;;;;;;4989177;28;20254;-82
2023/01/26 01:26:57;;;;;;;21.53;13.00;;;;;;;;;;4989905;28;20219;-82
2023/01/26 01:29:24;;;;;;;23.80;14.10;;;;;;;;;;4989338;28;20620;-83
2023/01/26 01:31:51;;;;;;;21.03;13.73;;;;;;;;;;4989451;28;20708;-83
2023/01/26 01:34:18;;;;;;;21.80;13.23;;;;;;;;;;4989012;28;20196;-83
2023/01/26 01:36:45;;;;;;;22.23;12.97;;;;;;;;;;4989546;28;20206;-83
2023/01/26 01:39:12;;;;;;;20.73;13.50;;;;;;;;;;4989342;28;20245;-83
2023/01/26 01:41:41;;;;;;;22.77;13.13;;;;;;;;;;5003286;28;20228;-82
2023/01/26 01:44:16;;;;;;;26.10;13.50;;;;;;;;;;5008682;28;20207;-83
2023/01/26 01:46:45;;;;;;;26.43;13.83;;;;;;;;;;5008138;28;20210;-83
2023/01/26 01:49:17;;;;;;;22.37;14.53;;;;;;;;;;4989228;28;20208;-82
2023/01/26 01:51:45;;;;;;;24.90;13.37;;;;;;;;;;4989422;28;20227;-82
2023/01/26 01:54:14;;;;;;;23.67;13.30;;;;;;;;;;4988886;28;20219;-83
2023/01/26 01:56:45;;;;;;;24.43;14.47;;;;;;;;;;4989603;28;20222;-83
2023/01/26 01:59:13;;;;;;;22.03;13.50;;;;;;;;;;4993297;28;20207;-82
2023/01/26 02:01:40;;;;;;;27.30;15.20;;;;;;;;;;4995884;28;20233;-83
2023/01/26 02:04:08;;;;;;;24.73;14.80;;;;;;;;;;4989801;28;20211;-84
2023/01/26 02:06:37;;;;;;;25.17;14.70;;;;;;;;;;4992432;28;20235;-84
2023/01/26 02:09:05;;;;;;;21.83;13.80;;;;;;;;;;5018304;28;20223;-84
2023/01/26 02:11:35;;;;;;;23.93;14.57;;;;;;;;;;5008512;28;20225;-84
2023/01/26 02:14:05;;;;;;;21.20;12.37;;;;;;;;;;5008818;28;20212;-84
2023/01/26 02:16:32;;;;;;;23.53;13.10;;;;;;;;;;5008817;28;20582;-85
2023/01/26 02:18:59;;;;;;;21.50;13.40;;;;;;;;;;5001409;28;20204;-84
2023/01/26 02:21:26;;;;;;;22.23;13.10;;;;;;;;;;4988309;28;20247;-84
2023/01/26 02:23:59;;;;;;;21.47;12.80;;;;;;;;;;4989054;28;20200;-84
2023/01/26 02:26:28;;;;;;;25.67;14.33;;;;;;;;;;4991153;28;20726;-84
2023/01/26 02:28:56;;;;;;;21.60;12.53;;;;;;;;;;4992610;28;20218;-84
2023/01/26 02:31:23;;;;;;;20.57;12.77;;;;;;;;;;4991729;28;20247;-84
2023/01/26 02:33:50;;;;;;;24.60;13.30;;;;;;;;;;4992205;28;20216;-84
2023/01/26 02:36:19;;;;;;;25.30;14.83;;;;;;;;;;4992003;28;20239;-84
2023/01/26 02:38:49;;;;;;;20.37;12.50;;;;;;;;;;4992140;28;20675;-84
2023/01/26 02:42:37;;;;;;;19.47;12.10;;;;;;;;;;5004586;28;20738;-84
2023/01/26 02:44:08;;;;;;;21.63;12.63;;;;;;;;;;5011218;28;20299;-84
2023/01/26 02:46:35;;;;;;;20.93;12.60;;;;;;;;;;4991576;28;20227;-84
2023/01/26 02:51:47;;;;;;;18.07;11.47;;;;;;;;;;4972285;28;20228;-84
2023/01/26 02:55:21;;;;;;;17.37;11.10;;;;;;;;;;4973920;28;20657;-84
2023/01/26 02:57:00;;;;;;;12.93;9.40;;;;;;;;;;4972223;28;20269;-84
2023/01/26 02:59:28;;;;;;;14.27;9.40;;;;;;;;;;4971825;28;20236;-84
2023/01/26 03:01:57;;;;;;;14.30;8.43;;;;;;;;;;4972030;28;20232;-84
2023/01/26 03:04:24;;;;;;;12.07;8.67;;;;;;;;;;4971699;28;20672;-84
2023/01/26 03:06:51;;;;;;;16.40;10.03;;;;;;;;;;4972261;28;20696;-84
2023/01/26 03:09:18;;;;;;;17.83;11.33;;;;;;;;;;4972625;28;20663;-84
2023/01/26 03:11:45;;;;;;;18.07;10.70;;;;;;;;;;4991738;28;20224;-84
2023/01/26 03:14:13;;;;;;;11.27;8.43;;;;;;;;;;4991110;28;20219;-84
2023/01/26 03:16:41;;;;;;;13.47;8.70;;;;;;;;;;4983088;28;20214;-84
2023/01/26 03:27:27;;;;;;;15.27;8.93;;;;;;;;;;4991497;28;20690;-84
2023/01/26 03:29:55;;;;;;;12.03;8.57;;;;;;;;;;4991164;28;20242;-83
2023/01/26 03:32:23;;;;;;;16.53;8.50;;;;;;;;;;4983261;28;20232;-84
2023/01/26 03:34:51;;;;;;;18.07;8.67;;;;;;;;;;4971441;28;20243;-83
2023/01/26 03:37:21;;;;;;;13.67;8.73;;;;;;;;;;4971852;28;20254;-84
2023/01/26 03:56:23;;;;;;;14.97;8.90;;;;;;;;;;4990827;28;20261;-84
2023/01/26 03:58:51;;;;;;;14.07;9.33;;;;;;;;;;4991040;28;20212;-84
2023/01/26 04:01:20;;;;;;;17.20;10.53;;;;;;;;;;4990566;28;20323;-84
2023/01/26 04:09:23;;;;;;;16.20;9.57;;;;;;;;;;4990598;28;20549;-84
2023/01/26 04:11:50;;;;;;;17.37;9.87;;;;;;;;;;4991395;28;20220;-82
2023/01/26 04:22:42;;;;;;;17.70;11.30;;;;;;;;;;4975607;28;20222;-82
2023/01/26 04:25:09;;;;;;;18.47;11.60;;;;;;;;;;4990355;28;20326;-83
2023/01/26 04:27:37;;;;;;;18.47;11.17;;;;;;;;;;4990840;28;20215;-83
2023/01/26 04:30:04;;;;;;;16.60;10.23;;;;;;;;;;4990153;28;20652;-81
2023/01/26 04:32:32;;;;;;;18.47;11.50;;;;;;;;;;4975429;28;20204;-82
2023/01/26 04:35:00;;;;;;;15.50;10.27;;;;;;;;;;4970661;28;20612;-83
2023/01/26 04:37:27;;;;;;;16.40;10.30;;;;;;;;;;4971013;28;20609;-83
2023/01/26 04:39:54;;;;;;;14.67;9.70;;;;;;;;;;4970805;28;20247;-82
2023/01/26 04:42:23;;;;;;;19.93;10.70;;;;;;;;;;4970988;28;20341;-83
2023/01/26 04:44:50;;;;;;;21.33;10.50;;;;;;;;;;4970689;28;20678;-82
2023/01/26 04:47:17;;;;;;;16.70;10.43;;;;;;;;;;4970920;28;20219;-83
2023/01/26 04:49:44;;;;;;;17.17;10.13;;;;;;;;;;4974309;28;20232;-82
2023/01/26 04:52:12;;;;;;;19.83;11.57;;;;;;;;;;4990019;28;20224;-83
2023/01/26 04:54:39;;;;;;;18.07;9.83;;;;;;;;;;4983735;28;20246;-83
2023/01/26 04:57:07;;;;;;;21.90;11.87;;;;;;;;;;4975651;28;20211;-82
2023/01/26 04:59:34;;;;;;;16.53;11.70;;;;;;;;;;4986906;28;20235;-83
2023/01/26 05:02:01;;;;;;;17.50;11.03;;;;;;;;;;4970606;28;20605;-83
2023/01/26 05:04:28;;;;;;;17.53;9.37;;;;;;;;;;4970500;28;20566;-84
2023/01/26 05:06:55;;;;;;;17.97;10.90;;;;;;;;;;4983543;28;20209;-83
2023/01/26 05:09:24;;;;;;;19.43;11.03;;;;;;;;;;4975618;28;20699;-83
2023/01/26 05:11:51;;;;;;;20.20;11.00;;;;;;;;;;4989920;28;20238;-83
2023/01/26 05:14:18;;;;;;;17.43;10.30;;;;;;;;;;4980437;28;20209;-84
2023/01/26 05:16:45;;;;;;;21.47;11.97;;;;;;;;;;4970289;28;20220;-84
2023/01/26 05:19:12;;;;;;;19.93;10.73;;;;;;;;;;4970158;28;20200;-84
2023/01/26 05:21:39;;;;;;;17.97;10.70;;;;;;;;;;4970876;28;20243;-84
2023/01/26 05:24:07;;;;;;;18.50;10.63;;;;;;;;;;4974267;28;20220;-84
2023/01/26 05:26:35;;;;;;;18.67;10.83;;;;;;;;;;4970099;28;20555;-84
2023/01/26 05:29:02;;;;;;;17.40;10.40;;;;;;;;;;4970790;28;20239;-84
2023/01/26 05:31:29;;;;;;;18.60;10.10;;;;;;;;;;4990405;28;20228;-85
2023/01/26 05:33:58;;;;;;;16.83;10.37;;;;;;;;;;5008376;28;20202;-85
2023/01/26 05:36:25;;;;;;;16.50;10.43;;;;;;;;;;5008042;28;20234;-84
2023/01/26 05:38:52;;;;;;;15.23;10.57;;;;;;;;;;5007099;28;20655;-82
2023/01/26 05:41:19;;;;;;;19.83;10.90;;;;;;;;;;5008890;28;20244;-86
2023/01/26 05:43:47;;;;;;;14.73;10.10;;;;;;;;;;5008882;28;20242;-86
2023/01/26 05:46:14;;;;;;;20.97;13.33;;;;;;;;;;5008126;28;20235;-87
2023/01/26 05:48:41;;;;;;;17.00;10.70;;;;;;;;;;5010111;28;20203;-87
2023/01/26 05:51:08;;;;;;;17.57;11.03;;;;;;;;;;5014500;28;20249;-88
2023/01/26 05:53:35;;;;;;;19.20;10.50;;;;;;;;;;5012162;28;20205;-87
2023/01/26 05:56:06;;;;;;;17.73;11.00;;;;;;;;;;5019772;28;20233;-86
2023/01/26 05:58:33;;;;;;;20.93;11.47;;;;;;;;;;5023643;28;20209;-85
2023/01/26 06:01:05;;;;;;;22.83;11.50;;;;;;;;;;5015434;28;20246;-86
2023/01/26 06:03:32;;;;;;;21.63;11.27;;;;;;;;;;5027734;28;20211;-86
2023/01/26 06:05:59;;;;;;;18.43;11.73;;;;;;;;;;5022332;28;20241;-87
2023/01/26 06:08:26;;;;;;;17.47;11.13;;;;;;;;;;5012908;28;20232;-87
2023/01/26 06:10:59;;;;;;;19.73;11.00;;;;;;;;;;5013987;28;20233;-86
2023/01/26 06:13:26;;;;;;;22.47;11.83;;;;;;;;;;5009491;28;20207;-86
2023/01/26 06:15:53;;;;;;;19.40;11.43;;;;;;;;;;5017646;28;20238;-85
2023/01/26 06:18:21;;;;;;;16.67;11.17;;;;;;;;;;5028222;28;20614;-82
2023/01/26 06:20:48;;;;;;;19.13;11.13;;;;;;;;;;5031076;28;20234;-82
2023/01/26 06:23:15;;;;;;;19.00;11.07;;;;;;;;;;5017851;28;20226;-80
2023/01/26 06:25:42;;;;;;;22.50;11.23;;;;;;;;;;5024757;28;20341;-82
2023/01/26 06:28:09;;;;;;;15.60;9.80;;;;;;;;;;5019402;28;20563;-82
2023/01/26 06:30:36;;;;;;;17.17;10.23;;;;;;;;;;5021850;28;20236;-82
2023/01/26 06:33:05;;;;;;;14.23;10.00;;;;;;;;;;5016505;28;20280;-82
2023/01/26 06:35:35;;;;;;;16.13;10.50;;;;;;;;;;5018847;28;20322;-82
2023/01/26 06:38:02;;;;;;;15.50;10.60;;;;;;;;;;5012273;28;20286;-84
2023/01/26 06:40:29;;;;;;;16.73;9.97;;;;;;;;;;5024714;28;20721;-84
2023/01/26 06:42:56;;;;;;;20.27;12.23;;;;;;;;;;5024230;28;20694;-85
2023/01/26 06:45:23;;;;;;;20.80;10.83;;;;;;;;;;5023043;28;20238;-84
2023/01/26 06:47:51;;;;;;;16.00;10.47;;;;;;;;;;5031884;28;20221;-85
2023/01/26 06:50:23;;;;;;;18.20;10.23;;;;;;;;;;5023328;28;20604;-84
2023/01/26 06:52:53;;;;;;;13.53;9.30;;;;;;;;;;5004339;28;20565;-84
2023/01/26 06:55:23;;;;;;;18.10;10.97;;;;;;;;;;5026285;28;20241;-84
2023/01/26 06:57:50;;;;;;;15.80;10.10;;;;;;;;;;5025964;28;20689;-84
2023/01/26 07:00:18;;;;;;;15.90;10.20;;;;;;;;;;5014661;28;20721;-84
2023/01/26 07:02:45;;;;;;;15.57;10.47;;;;;;;;;;5019452;28;20229;-84
2023/01/26 07:05:12;;;;;;;12.57;8.67;;;;;;;;;;5015314;28;20581;-86
2023/01/26 07:07:39;;;;;;;19.10;9.90;;;;;;;;;;5013435;28;20215;-84
2023/01/26 07:10:08;;;;;;;15.70;10.07;;;;;;;;;;5010962;28;20226;-84
2023/01/26 07:12:38;;;;;;;15.77;9.83;;;;;;;;;;5008272;28;20217;-84
2023/01/26 07:15:06;;;;;;;17.00;9.90;;;;;;;;;;5010765;28;20272;-84
2023/01/26 07:17:33;;;;;;;14.43;9.17;;;;;;;;;;5010996;28;20695;-84
2023/01/26 07:20:00;;;;;;;15.63;9.33;;;;;;;;;;5010201;28;20238;-84
2023/01/26 07:22:27;;;;;;;15.50;10.00;;;;;;;;;;5013032;28;20755;-84
2023/01/26 07:24:54;;;;;;;14.67;9.17;;;;;;;;;;5009775;28;20247;-84
2023/01/26 07:27:22;;;;;;;14.03;9.10;;;;;;;;;;5010206;28;20214;-83
2023/01/26 07:29:50;;;;;;;15.37;9.43;;;;;;;;;;5010124;28;20253;-83
2023/01/26 07:32:17;;;;;;;13.40;8.27;;;;;;;;;;5010664;28;20263;-84
2023/01/26 07:34:44;;;;;;;14.53;8.90;;;;;;;;;;5010001;28;20231;-84
2023/01/26 07:37:11;;;;;;;11.13;7.77;;;;;;;;;;5010801;28;20206;-84
2023/01/26 07:39:38;;;;;;;13.70;8.73;;;;;;;;;;5010354;28;20235;-84
2023/01/26 07:42:05;;;;;;;17.40;9.77;;;;;;;;;;5010368;28;20231;-83
2023/01/26 07:44:34;;;;;;;13.77;8.33;;;;;;;;;;5010064;28;20261;-83
2023/01/26 07:47:02;;;;;;;15.30;8.90;;;;;;;;;;5010833;28;20218;-83
2023/01/26 07:49:29;;;;;;;12.30;8.80;;;;;;;;;;5009926;28;20250;-84
2023/01/26 07:51:56;;;;;;;12.57;8.43;;;;;;;;;;5010637;28;20327;-83
2023/01/26 07:54:23;;;;;;;12.20;9.20;;;;;;;;;;5008858;28;20203;-84
2023/01/26 07:56:52;;;;;;;13.10;8.10;;;;;;;;;;5022051;28;20214;-84
2023/01/26 07:59:20;;;;;;;14.07;8.67;;;;;;;;;;5021833;28;20203;-84
2023/01/26 08:01:50;;;;;;;15.50;9.53;;;;;;;;;;5018282;28;20229;-84
2023/01/26 08:04:18;;;;;;;12.23;8.33;;;;;;;;;;5019760;22;20238;-86
2023/01/26 08:06:45;;;;;;;16.37;8.60;;;;;;;;;;5013232;28;20242;-85
2023/01/26 08:09:12;;;;;;;10.77;8.07;;;;;;;;;;5010712;28;20418;-87
2023/01/26 08:11:39;;;;;;;15.37;9.23;;;;;;;;;;5010820;28;20204;-87
2023/01/26 08:14:06;;;;;;;17.27;8.30;;;;;;;;;;5012802;28;20211;-86
2023/01/26 08:16:33;;;;;;;14.83;10.03;;;;;;;;;;5043377;28;20208;-84
2023/01/26 08:19:02;;;;;;;13.77;8.47;;;;;;;;;;5094634;28;20199;-86
2023/01/26 08:21:29;;;;;;;12.27;9.03;;;;;;;;;;5094270;28;20221;-85
2023/01/26 08:24:00;;;;;;;10.63;8.20;;;;;;;;;;5092619;28;20225;-85
2023/01/26 08:26:28;;;;;;;9.90;8.13;;;;;;;;;;5094691;28;20232;-85
2023/01/26 08:28:55;;;;;;;11.30;8.90;;;;;;;;;;5095272;28;20264;-87
2023/01/26 08:31:24;;;;;;;13.07;9.30;;;;;;;;;;5094715;28;20231;-86
2023/01/26 08:33:53;;;;;;;12.10;9.17;;;;;;;;;;5093238;28;20210;-86
2023/01/26 08:36:22;;;;;;;10.60;8.47;;;;;;;;;;5092775;28;20713;-86
2023/01/26 08:38:49;;;;;;;13.77;9.10;;;;;;;;;;5093732;28;20196;-86
2023/01/26 08:41:16;;;;;;;12.50;9.17;;;;;;;;;;5092611;28;20236;-86
2023/01/26 08:43:43;;;;;;;13.20;9.30;;;;;;;;;;5092893;28;20227;-86
2023/01/26 08:46:10;;;;;;;14.43;9.40;;;;;;;;;;5098416;28;20242;-87
2023/01/26 08:48:37;;;;;;;11.47;8.57;;;;;;;;;;5094135;28;20208;-87
2023/01/26 08:51:05;;;;;;;9.83;7.60;;;;;;;;;;5094399;28;20239;-86
2023/01/26 08:53:35;;;;;;;11.60;8.63;;;;;;;;;;5094636;28;20222;-87
2023/01/26 08:56:02;;;;;;;10.63;7.57;;;;;;;;;;5015431;28;20250;-87
2023/01/26 08:58:30;;;;;;;10.70;7.87;;;;;;;;;;5093872;28;20210;-86
2023/01/26 09:00:57;;;;;;;8.27;6.90;;;;;;;;;;5055945;28;20762;-86
2023/01/26 09:03:24;;;;;;;11.70;7.73;;;;;;;;;;5002776;28;20229;-87
2023/01/26 09:05:51;;;;;;;10.80;8.00;;;;;;;;;;4998479;28;20243;-87
2023/01/26 09:08:18;;;;;;;10.77;7.57;;;;;;;;;;5093245;28;20212;-86
2023/01/26 09:10:46;;;;;;;12.80;7.43;;;;;;;;;;5091805;28;20712;-87
2023/01/26 09:13:13;;;;;;;10.33;8.07;;;;;;;;;;5092017;28;20660;-87
2023/01/26 09:15:40;;;;;;;9.30;8.13;;;;;;;;;;5092294;28;20614;-86
2023/01/26 09:18:07;;;;;;;12.43;8.67;;;;;;;;;;5092234;28;20202;-87
2023/01/26 09:20:34;;;;;;;9.87;8.30;;;;;;;;;;5090971;28;20244;-86
2023/01/26 09:23:02;;;;;;;10.10;7.80;;;;;;;;;;5091374;28;20231;-86
2023/01/26 09:25:29;;;;;;;11.33;8.17;;;;;;;;;;5093355;28;20234;-85
2023/01/26 09:27:57;;;;;;;9.70;8.10;;;;;;;;;;5093436;28;20201;-86
2023/01/26 09:30:24;;;;;;;9.47;7.63;;;;;;;;;;5094235;28;20241;-86
2023/01/26 09:32:52;;;;;;;11.47;8.33;;;;;;;;;;5093118;28;20210;-86
2023/01/26 09:35:19;;;;;;;9.23;7.73;;;;;;;;;;5095121;28;20364;-86
2023/01/26 09:37:46;;;;;;;9.40;7.73;;;;;;;;;;5096362;28;20210;-87
2023/01/26 09:40:16;;;;;;;8.90;7.30;;;;;;;;;;5095775;28;20239;-86
2023/01/26 09:42:49;;;;;;;8.63;6.87;;;;;;;;;;5107726;28;20204;-86
2023/01/26 09:45:22;;;;;;;9.37;7.53;;;;;;;;;;5106462;28;20250;-86
2023/01/26 09:47:55;;;;;;;9.70;7.93;;;;;;;;;;5097045;28;20269;-86
2023/01/26 09:50:25;;;;;;;8.97;6.70;;;;;;;;;;5095203;28;20238;-86
2023/01/26 09:52:54;;;;;;;8.93;7.67;;;;;;;;;;5097883;28;20281;-86
2023/01/26 09:55:23;;;;;;;7.70;6.90;;;;;;;;;;5098798;28;20243;-86
2023/01/26 09:57:51;;;;;;;9.50;7.33;;;;;;;;;;5098638;28;20211;-86
2023/01/26 10:00:21;;;;;;;8.13;6.83;;;;;;;;;;5084365;28;20227;-86
2023/01/26 10:02:53;;;;;;;8.83;6.93;;;;;;;;;;5013735;28;20229;-86
2023/01/26 10:05:29;;;;;;;9.50;6.90;;;;;;;;;;5012496;28;20249;-86
2023/01/26 10:07:56;;;;;;;7.83;6.60;;;;;;;;;;5046867;28;20219;-86
2023/01/26 10:10:28;;;;;;;8.50;6.27;;;;;;;;;;5105374;28;20229;-86
2023/01/26 10:12:55;;;;;;;11.00;8.57;;;;;;;;;;5103429;28;20231;-86
2023/01/26 10:15:28;;;;;;;9.07;7.10;;;;;;;;;;5100177;28;20240;-86
2023/01/26 10:17:56;;;;;;;8.30;6.37;;;;;;;;;;5100545;28;20687;-85
2023/01/26 10:20:27;;;;;;;7.00;6.30;;;;;;;;;;5098960;28;20236;-86
2023/01/26 10:22:55;;;;;;;7.50;6.70;;;;;;;;;;5030146;28;20211;-86
2023/01/26 10:25:28;;;;;;;8.33;6.40;;;;;;;;;;4993335;28;20242;-86
2023/01/26 10:27:55;;;;;;;7.37;6.67;;;;;;;;;;5027080;28;20206;-86
2023/01/26 10:30:22;;;;;;;8.53;6.57;;;;;;;;;;5096510;28;20240;-86
2023/01/26 10:32:52;;;;;;;12.13;9.13;;;;;;;;;;5096961;28;20672;-86
2023/01/26 10:35:20;;;;;;;8.33;5.93;;;;;;;;;;5095779;28;20236;-85
2023/01/26 10:37:51;;;;;;;7.10;6.37;;;;;;;;;;5096384;28;20200;-86
2023/01/26 10:40:21;;;;;;;7.43;6.00;;;;;;;;;;5096390;28;20594;-86
2023/01/26 10:42:57;;;;;;;8.40;6.47;;;;;;;;;;5097818;28;20210;-86
2023/01/26 10:45:26;;;;;;;10.47;7.57;;;;;;;;;;5103908;28;20555;-86
2023/01/26 10:48:05;;;;;;;7.03;6.33;;;;;;;;;;5104551;28;20213;-86
2023/01/26 10:50:32;;;;;;;8.80;6.73;;;;;;;;;;5103799;28;20227;-86
2023/01/26 10:53:00;;;;;;;8.90;7.10;;;;;;;;;;5103838;28;20219;-86
2023/01/26 10:55:28;;;;;;;10.47;7.97;;;;;;;;;;5050081;28;20226;-86
2023/01/26 10:57:55;;;;;;;11.37;7.67;;;;;;;;;;5062042;28;20211;-86
2023/01/26 11:00:28;;;;;;;9.23;7.10;;;;;;;;;;5098210;28;20242;-86
2023/01/26 11:02:56;;;;;;;11.07;8.67;;;;;;;;;;5097867;28;20706;-86
2023/01/26 11:05:25;;;;;;;10.77;8.83;;;;;;;;;;5096191;28;20236;-86
2023/01/26 11:07:57;;;;;;;10.63;7.83;;;;;;;;;;5097285;28;20208;-87
2023/01/26 11:10:26;;;;;;;10.50;8.07;;;;;;;;;;5097547;28;20243;-86
2023/01/26 11:13:07;;;;;;;11.23;8.87;;;;;;;;;;5096000;28;20208;-86
2023/01/26 11:15:36;;;;;;;13.13;8.17;;;;;;;;;;5096051;28;20248;-86
2023/01/26 11:18:06;;;;;;;11.60;8.20;;;;;;;;;;5097010;28;20197;-86
2023/01/26 11:20:41;;;;;;;9.73;8.20;;;;;;;;;;5096790;28;20243;-86
2023/01/26 11:23:13;;;;;;;10.90;8.50;;;;;;;;;;5098907;28;20196;-86
2023/01/26 11:25:43;;;;;;;12.33;8.80;;;;;;;;;;5095382;28;20243;-86
2023/01/26 11:28:21;;;;;;;13.27;8.83;;;;;;;;;;5096146;28;20208;-85
2023/01/26 11:31:02;;;;;;;11.30;8.43;;;;;;;;;;5095150;28;20238;-86
2023/01/26 11:33:31;;;;;;;11.10;8.33;;;;;;;;;;5094857;28;20211;-86
2023/01/26 11:36:04;;;;;;;13.60;9.97;;;;;;;;;;5094555;28;20236;-85
2023/01/26 11:38:36;;;;;;;11.37;8.97;;;;;;;;;;5017966;28;20215;-86
2023/01/26 11:41:07;;;;;;;14.00;9.57;;;;;;;;;;5022042;28;20273;-86
2023/01/26 11:43:44;;;;;;;10.23;8.33;;;;;;;;;;4992202;28;20852;-86
2023/01/26 11:46:19;;;;;;;10.20;8.27;;;;;;;;;;5093700;28;20259;-85
2023/01/26 11:48:51;;;;;;;12.40;8.60;;;;;;;;;;5095291;28;20289;-85
2023/01/26 11:51:25;;;;;;;9.17;7.80;;;;;;;;;;5078005;28;20228;-85
2023/01/26 11:53:59;;;;;;;11.73;8.77;;;;;;;;;;5094630;28;20203;-86
2023/01/26 11:56:34;;;;;;;11.37;9.00;;;;;;;;;;5094143;28;20236;-86
2023/01/26 11:59:04;;;;;;;12.57;9.23;;;;;;;;;;5094268;28;20595;-86
2023/01/26 12:01:33;;;;;;;14.20;8.73;;;;;;;;;;5038290;28;20235;-86
2023/01/26 12:04:00;;;;;;;11.63;9.27;;;;;;;;;;5011748;28;20216;-85
2023/01/26 12:06:32;;;;;;;14.63;9.50;;;;;;;;;;4973365;28;20240;-86
2023/01/26 12:09:00;;;;;;;12.70;9.27;;;;;;;;;;4971753;28;20203;-85
2023/01/26 12:11:30;;;;;;;11.20;8.67;;;;;;;;;;4970842;28;20244;-85
2023/01/26 12:14:00;;;;;;;11.97;8.83;;;;;;;;;;4970731;28;20212;-86
2023/01/26 12:16:31;;;;;;;11.57;8.53;;;;;;;;;;5087470;28;20258;-86
2023/01/26 12:19:03;;;;;;;11.67;8.63;;;;;;;;;;5092914;28;20204;-86
2023/01/26 12:21:34;;;;;;;12.13;8.63;;;;;;;;;;5092304;28;20239;-86
2023/01/26 12:24:03;;;;;;;10.30;7.83;;;;;;;;;;5092719;28;20632;-86
2023/01/26 12:26:33;;;;;;;11.97;8.53;;;;;;;;;;5092109;28;20231;-85
2023/01/26 12:29:07;;;;;;;12.33;8.70;;;;;;;;;;5093146;28;20216;-85
2023/01/26 12:31:36;;;;;;;11.00;8.60;;;;;;;;;;5071430;28;20235;-86
2023/01/26 12:34:03;;;;;;;12.43;8.70;;;;;;;;;;5051442;28;20209;-85
2023/01/26 12:36:41;;;;;;;9.73;8.20;;;;;;;;;;5091858;28;20228;-85
2023/01/26 12:39:12;;;;;;;13.57;8.80;;;;;;;;;;5091821;28;20203;-87
2023/01/26 12:41:46;;;;;;;14.80;9.00;;;;;;;;;;5092262;28;20564;-85
2023/01/26 12:44:20;;;;;;;12.10;9.33;;;;;;;;;;5091625;28;20604;-85
2023/01/26 12:46:51;;;;;;;12.10;9.30;;;;;;;;;;5063431;28;20223;-85
2023/01/26 12:49:20;;;;;;;11.10;8.57;;;;;;;;;;4993502;28;20208;-85
2023/01/26 12:51:51;;;;;;;13.20;9.90;;;;;;;;;;4993273;28;20228;-85
2023/01/26 12:54:21;;;;;;;11.53;8.73;;;;;;;;;;4989363;28;20296;-85
2023/01/26 12:56:50;;;;;;;11.80;8.70;;;;;;;;;;5083597;28;20222;-85
2023/01/26 12:59:18;;;;;;;10.53;7.80;;;;;;;;;;5091587;28;20246;-85
2023/01/26 13:01:45;;;;;;;11.93;8.57;;;;;;;;;;5028774;28;20210;-85
2023/01/26 13:04:14;;;;;;;10.27;7.83;;;;;;;;;;5008385;28;20706;-85
2023/01/26 13:06:41;;;;;;;10.27;7.13;;;;;;;;;;5076840;28;20215;-85
2023/01/26 13:09:22;;;;;;;10.60;7.67;;;;;;;;;;5092229;28;20200;-85
2023/01/26 13:11:51;;;;;;;10.47;7.70;;;;;;;;;;5092295;28;20208;-85
2023/01/26 13:14:30;;;;;;;10.73;8.00;;;;;;;;;;5093047;28;20227;-85
2023/01/26 13:16:58;;;;;;;11.30;8.57;;;;;;;;;;5093396;28;20200;-85
2023/01/26 13:19:36;;;;;;;10.77;8.33;;;;;;;;;;5091255;28;20695;-85
2023/01/26 13:22:04;;;;;;;9.70;7.20;;;;;;;;;;5037309;28;20264;-85
2023/01/26 13:24:45;;;;;;;11.40;8.70;;;;;;;;;;5092483;28;20604;-85
2023/01/26 13:27:32;;;;;;;11.37;8.40;;;;;;;;;;5094288;28;20203;-86
2023/01/26 13:29:59;;;;;;;11.60;8.07;;;;;;;;;;5092459;28;20926;-85
2023/01/26 13:32:58;;;;;;;10.50;8.30;;;;;;;;;;5093130;28;20613;-85
2023/01/26 13:35:26;;;;;;;9.73;7.83;;;;;;;;;;5092502;28;20235;-85
2023/01/26 13:37:57;;;;;;;11.27;7.50;;;;;;;;;;5093335;28;20204;-85
2023/01/26 13:40:27;;;;;;;9.50;7.33;;;;;;;;;;5093136;28;20235;-85
2023/01/26 13:42:57;;;;;;;11.20;7.80;;;;;;;;;;4999794;28;20205;-85
2023/01/26 13:45:29;;;;;;;9.83;7.77;;;;;;;;;;5034204;28;20236;-86
2023/01/26 13:47:58;;;;;;;10.77;7.83;;;;;;;;;;5093197;28;20188;-86
2023/01/26 13:50:30;;;;;;;11.70;8.63;;;;;;;;;;5092248;28;20310;-86
2023/01/26 13:52:57;;;;;;;13.47;9.10;;;;;;;;;;5092985;28;20207;-87
2023/01/26 13:55:27;;;;;;;12.53;8.70;;;;;;;;;;5034771;28;20784;-87
2023/01/26 13:58:13;;;;;;;12.13;8.83;;;;;;;;;;5009939;28;20649;-88
2023/01/26 14:00:40;;;;;;;11.83;8.17;;;;;;;;;;4970384;28;20236;-88
2023/01/26 14:03:19;;;;;;;13.07;8.13;;;;;;;;;;4971599;28;20217;-88
2023/01/26 14:05:51;;;;;;;12.07;8.30;;;;;;;;;;5030487;28;20242;-91
2023/01/26 14:08:20;;;;;;;11.73;8.53;;;;;;;;;;5094308;28;20279;-87
2023/01/26 14:10:48;;;;;;;10.87;7.97;;;;;;;;;;5027735;28;20270;-87
2023/01/26 14:13:20;;;;;;;11.10;8.57;;;;;;;;;;4990309;28;20691;-87
2023/01/26 14:15:55;;;;;;;12.27;8.50;;;;;;;;;;5034861;28;20239;-87
2023/01/26 14:18:22;;;;;;;11.27;8.17;;;;;;;;;;5093426;28;20675;-87
2023/01/26 14:20:50;;;;;;;11.80;8.83;;;;;;;;;;5012032;28;20240;-88
2023/01/26 14:23:18;;;;;;;10.03;8.37;;;;;;;;;;5035533;28;20203;-89
2023/01/26 14:25:47;;;;;;;14.47;8.93;;;;;;;;;;4997068;28;20232;-89
2023/01/26 14:28:17;;;;;;;11.80;8.57;;;;;;;;;;4993077;28;20543;-87
2023/01/26 14:30:45;;;;;;;11.70;9.03;;;;;;;;;;4993440;28;20235;-88
2023/01/26 14:33:13;;;;;;;12.60;8.53;;;;;;;;;;4995610;28;20224;-88
2023/01/26 14:35:41;;;;;;;13.63;9.40;;;;;;;;;;5005935;28;20238;-89
2023/01/26 14:38:16;;;;;;;13.30;8.67;;;;;;;;;;4997131;28;20196;-89
2023/01/26 14:40:47;;;;;;;12.30;8.07;;;;;;;;;;4997493;28;20250;-88
2023/01/26 14:43:15;;;;;;;11.93;9.10;;;;;;;;;;4995620;28;20203;-88
2023/01/26 14:45:47;;;;;;;13.40;8.97;;;;;;;;;;5022147;28;20237;-89
2023/01/26 14:48:17;;;;;;;12.13;9.07;;;;;;;;;;5098006;28;20215;-88
2023/01/26 14:50:46;;;;;;;12.73;9.53;;;;;;;;;;5095937;28;20311;-88
2023/01/26 14:53:17;;;;;;;12.33;8.83;;;;;;;;;;5095314;28;20216;-88
2023/01/26 14:55:44;;;;;;;13.10;8.70;;;;;;;;;;5021620;28;20231;-88
2023/01/26 14:58:15;;;;;;;13.50;9.23;;;;;;;;;;5017871;28;20209;-90
2023/01/26 15:00:42;;;;;;;10.13;7.97;;;;;;;;;;5076683;28;20251;-90
2023/01/26 15:03:15;;;;;;;11.50;8.63;;;;;;;;;;5075555;28;20216;-88
2023/01/26 15:05:42;;;;;;;14.10;8.93;;;;;;;;;;5020731;28;20228;-88
2023/01/26 15:08:19;;;;;;;12.97;9.03;;;;;;;;;;5038521;28;20251;-90
2023/01/26 15:10:54;;;;;;;13.80;9.00;;;;;;;;;;5076486;28;20240;-90
2023/01/26 15:13:23;;;;;;;14.23;8.93;;;;;;;;;;5011827;28;20256;-89
2023/01/26 15:16:02;;;;;;;18.03;9.00;;;;;;;;;;5012686;28;20349;-91
2023/01/26 15:18:32;;;;;;;12.73;8.73;;;;;;;;;;5097311;28;20218;-87